sensor_id;sensor_type;location;lat;lon;timestamp;P1;durP1;ratioP1;P2;durP2;ratioP2
22841;SDS011;11587;47.064;15.444;2023-04-03T00:02:10;0.20;;;0.20;;
22841;SDS011;11587;47.064;15.444;2023-04-03T00:04:36;0.20;;;0.20;;
22841;SDS011;11587;47.064;15.444;2023-04-03T00:07:02;0.20;;;0.20;;
22841;SDS011;11587;47.064;15.444;2023-04-03T00:09:28;0.30;;;0.30;;
22841;SDS011;11587;47.064;15.444;2023-04-03T00:11:54;0.25;;;0.25;;
22841;SDS011;11587;47.064;15.444;2023-04-03T00:14:20;0.20;;;0.20;;
22841;SDS011;11587;47.064;15.444;2023-04-03T00:16:46;0.28;;;0.28;;
22841;SDS011;11587;47.064;15.444;2023-04-03T00:19:12;0.20;;;0.20;;
22841;SDS011;11587;47.064;15.444;2023-04-03T00:21:38;0.20;;;0.20;;
22841;SDS011;11587;47.064;15.444;2023-04-03T00:24:05;0.20;;;0.20;;
22841;SDS011;11587;47.064;15.444;2023-04-03T00:26:31;0.30;;;0.30;;
22841;SDS011;11587;47.064;15.444;2023-04-03T00:28:57;0.20;;;0.20;;
22841;SDS011;11587;47.064;15.444;2023-04-03T00:31:23;0.30;;;0.30;;
22841;SDS011;11587;47.064;15.444;2023-04-03T00:33:50;0.20;;;0.20;;
22841;SDS011;11587;47.064;15.444;2023-04-03T00:36:16;0.30;;;0.30;;
22841;SDS011;11587;47.064;15.444;2023-04-03T00:38:42;0.20;;;0.20;;
22841;SDS011;11587;47.064;15.444;2023-04-03T00:41:08;0.22;;;0.22;;
22841;SDS011;11587;47.064;15.444;2023-04-03T00:43:34;0.20;;;0.20;;
22841;SDS011;11587;47.064;15.444;2023-04-03T00:46:00;0.20;;;0.20;;
22841;SDS011;11587;47.064;15.444;2023-04-03T00:48:45;0.30;;;0.30;;
22841;SDS011;11587;47.064;15.444;2023-04-03T00:51:16;0.30;;;0.30;;
22841;SDS011;11587;47.064;15.444;2023-04-03T00:53:44;0.30;;;0.30;;
22841;SDS011;11587;47.064;15.444;2023-04-03T00:56:13;0.20;;;0.20;;
22841;SDS011;11587;47.064;15.444;2023-04-03T00:58:40;0.20;;;0.20;;
22841;SDS011;11587;47.064;15.444;2023-04-03T01:01:07;0.20;;;0.20;;
22841;SDS011;11587;47.064;15.444;2023-04-03T01:03:34;0.20;;;0.20;;
22841;SDS011;11587;47.064;15.444;2023-04-03T01:06:00;0.20;;;0.20;;
22841;SDS011;11587;47.064;15.444;2023-04-03T01:08:26;0.20;;;0.20;;
22841;SDS011;11587;47.064;15.444;2023-04-03T01:10:52;0.30;;;0.30;;
22841;SDS011;11587;47.064;15.444;2023-04-03T01:15:50;0.30;;;0.30;;
22841;SDS011;11587;47.064;15.444;2023-04-03T01:18:16;0.30;;;0.30;;
22841;SDS011;11587;47.064;15.444;2023-04-03T01:20:46;0.20;;;0.20;;
22841;SDS011;11587;47.064;15.444;2023-04-03T01:23:28;0.30;;;0.30;;
22841;SDS011;11587;47.064;15.444;2023-04-03T01:25:57;0.30;;;0.30;;
22841;SDS011;11587;47.064;15.444;2023-04-03T01:28:27;0.20;;;0.20;;
22841;SDS011;11587;47.064;15.444;2023-04-03T01:31:29;0.30;;;0.30;;
22841;SDS011;11587;47.064;15.444;2023-04-03T01:33:46;0.30;;;0.30;;
22841;SDS011;11587;47.064;15.444;2023-04-03T01:36:14;0.30;;;0.30;;
22841;SDS011;11587;47.064;15.444;2023-04-03T01:38:40;0.20;;;0.20;;
22841;SDS011;11587;47.064;15.444;2023-04-03T01:41:06;0.20;;;0.20;;
22841;SDS011;11587;47.064;15.444;2023-04-03T01:43:32;0.30;;;0.30;;
22841;SDS011;11587;47.064;15.444;2023-04-03T01:45:58;0.30;;;0.30;;
22841;SDS011;11587;47.064;15.444;2023-04-03T01:48:24;0.28;;;0.28;;
22841;SDS011;11587;47.064;15.444;2023-04-03T01:50:50;0.30;;;0.30;;
22841;SDS011;11587;47.064;15.444;2023-04-03T01:53:16;0.30;;;0.30;;
22841;SDS011;11587;47.064;15.444;2023-04-03T01:55:42;0.20;;;0.20;;
22841;SDS011;11587;47.064;15.444;2023-04-03T01:58:09;0.20;;;0.20;;
22841;SDS011;11587;47.064;15.444;2023-04-03T02:00:35;0.30;;;0.30;;
22841;SDS011;11587;47.064;15.444;2023-04-03T02:03:01;0.22;;;0.22;;
22841;SDS011;11587;47.064;15.444;2023-04-03T02:05:27;0.30;;;0.30;;
22841;SDS011;11587;47.064;15.444;2023-04-03T02:07:53;0.25;;;0.25;;
22841;SDS011;11587;47.064;15.444;2023-04-03T02:10:19;0.20;;;0.20;;
22841;SDS011;11587;47.064;15.444;2023-04-03T02:12:45;0.30;;;0.30;;
22841;SDS011;11587;47.064;15.444;2023-04-03T02:15:11;0.28;;;0.28;;
22841;SDS011;11587;47.064;15.444;2023-04-03T02:17:37;0.28;;;0.28;;
22841;SDS011;11587;47.064;15.444;2023-04-03T02:20:04;0.30;;;0.30;;
22841;SDS011;11587;47.064;15.444;2023-04-03T02:22:30;0.30;;;0.30;;
22841;SDS011;11587;47.064;15.444;2023-04-03T02:24:56;0.30;;;0.30;;
22841;SDS011;11587;47.064;15.444;2023-04-03T02:27:22;0.25;;;0.25;;
22841;SDS011;11587;47.064;15.444;2023-04-03T02:29:48;0.30;;;0.30;;
22841;SDS011;11587;47.064;15.444;2023-04-03T02:32:14;0.50;;;0.50;;
22841;SDS011;11587;47.064;15.444;2023-04-03T02:34:40;0.50;;;0.50;;
22841;SDS011;11587;47.064;15.444;2023-04-03T02:37:06;0.50;;;0.50;;
22841;SDS011;11587;47.064;15.444;2023-04-03T02:39:32;0.40;;;0.40;;
22841;SDS011;11587;47.064;15.444;2023-04-03T02:41:58;0.50;;;0.50;;
22841;SDS011;11587;47.064;15.444;2023-04-03T02:44:24;0.50;;;0.50;;
22841;SDS011;11587;47.064;15.444;2023-04-03T02:46:50;0.50;;;0.50;;
22841;SDS011;11587;47.064;15.444;2023-04-03T02:49:16;0.50;;;0.50;;
22841;SDS011;11587;47.064;15.444;2023-04-03T02:51:43;0.50;;;0.50;;
22841;SDS011;11587;47.064;15.444;2023-04-03T02:54:09;0.47;;;0.47;;
22841;SDS011;11587;47.064;15.444;2023-04-03T02:56:35;0.50;;;0.50;;
22841;SDS011;11587;47.064;15.444;2023-04-03T02:59:01;0.40;;;0.40;;
22841;SDS011;11587;47.064;15.444;2023-04-03T03:01:27;0.50;;;0.50;;
22841;SDS011;11587;47.064;15.444;2023-04-03T03:03:56;0.50;;;0.50;;
22841;SDS011;11587;47.064;15.444;2023-04-03T03:06:22;0.50;;;0.50;;
22841;SDS011;11587;47.064;15.444;2023-04-03T03:08:48;0.50;;;0.50;;
22841;SDS011;11587;47.064;15.444;2023-04-03T03:11:15;0.50;;;0.50;;
22841;SDS011;11587;47.064;15.444;2023-04-03T03:13:41;0.50;;;0.50;;
22841;SDS011;11587;47.064;15.444;2023-04-03T03:16:07;0.50;;;0.50;;
22841;SDS011;11587;47.064;15.444;2023-04-03T03:18:33;0.50;;;0.50;;
22841;SDS011;11587;47.064;15.444;2023-04-03T03:21:00;0.50;;;0.50;;
22841;SDS011;11587;47.064;15.444;2023-04-03T03:23:27;0.40;;;0.40;;
22841;SDS011;11587;47.064;15.444;2023-04-03T03:25:57;0.55;;;0.55;;
22841;SDS011;11587;47.064;15.444;2023-04-03T03:28:23;0.50;;;0.50;;
22841;SDS011;11587;47.064;15.444;2023-04-03T03:30:50;0.50;;;0.50;;
22841;SDS011;11587;47.064;15.444;2023-04-03T03:33:16;0.40;;;0.40;;
22841;SDS011;11587;47.064;15.444;2023-04-03T03:35:43;0.28;;;0.28;;
22841;SDS011;11587;47.064;15.444;2023-04-03T03:38:09;0.30;;;0.30;;
22841;SDS011;11587;47.064;15.444;2023-04-03T03:40:35;0.30;;;0.30;;
22841;SDS011;11587;47.064;15.444;2023-04-03T03:43:01;0.30;;;0.30;;
22841;SDS011;11587;47.064;15.444;2023-04-03T03:45:27;0.30;;;0.30;;
22841;SDS011;11587;47.064;15.444;2023-04-03T03:47:53;0.30;;;0.30;;
22841;SDS011;11587;47.064;15.444;2023-04-03T03:50:19;0.30;;;0.30;;
22841;SDS011;11587;47.064;15.444;2023-04-03T03:52:45;0.20;;;0.20;;
22841;SDS011;11587;47.064;15.444;2023-04-03T03:55:11;0.30;;;0.30;;
22841;SDS011;11587;47.064;15.444;2023-04-03T03:57:38;0.30;;;0.30;;
22841;SDS011;11587;47.064;15.444;2023-04-03T04:00:04;0.30;;;0.30;;
22841;SDS011;11587;47.064;15.444;2023-04-03T04:02:30;0.20;;;0.20;;
22841;SDS011;11587;47.064;15.444;2023-04-03T04:04:56;0.20;;;0.20;;
22841;SDS011;11587;47.064;15.444;2023-04-03T04:07:22;0.30;;;0.30;;
22841;SDS011;11587;47.064;15.444;2023-04-03T04:09:48;0.22;;;0.22;;
22841;SDS011;11587;47.064;15.444;2023-04-03T04:12:14;0.20;;;0.20;;
22841;SDS011;11587;47.064;15.444;2023-04-03T04:14:41;0.30;;;0.30;;
22841;SDS011;11587;47.064;15.444;2023-04-03T04:17:07;0.30;;;0.30;;
22841;SDS011;11587;47.064;15.444;2023-04-03T04:19:33;0.20;;;0.20;;
22841;SDS011;11587;47.064;15.444;2023-04-03T04:21:59;0.20;;;0.20;;
22841;SDS011;11587;47.064;15.444;2023-04-03T04:24:25;0.28;;;0.28;;
22841;SDS011;11587;47.064;15.444;2023-04-03T04:26:51;0.20;;;0.20;;
22841;SDS011;11587;47.064;15.444;2023-04-03T04:29:17;0.20;;;0.20;;
22841;SDS011;11587;47.064;15.444;2023-04-03T04:31:43;0.30;;;0.30;;
22841;SDS011;11587;47.064;15.444;2023-04-03T04:34:09;0.28;;;0.28;;
22841;SDS011;11587;47.064;15.444;2023-04-03T04:36:36;0.20;;;0.20;;
22841;SDS011;11587;47.064;15.444;2023-04-03T04:39:02;0.30;;;0.30;;
22841;SDS011;11587;47.064;15.444;2023-04-03T04:41:28;0.30;;;0.30;;
22841;SDS011;11587;47.064;15.444;2023-04-03T04:43:54;0.30;;;0.30;;
22841;SDS011;11587;47.064;15.444;2023-04-03T04:46:21;0.30;;;0.30;;
22841;SDS011;11587;47.064;15.444;2023-04-03T04:48:48;0.30;;;0.30;;
22841;SDS011;11587;47.064;15.444;2023-04-03T04:51:14;0.30;;;0.30;;
22841;SDS011;11587;47.064;15.444;2023-04-03T04:53:41;0.30;;;0.30;;
22841;SDS011;11587;47.064;15.444;2023-04-03T04:56:07;0.30;;;0.30;;
22841;SDS011;11587;47.064;15.444;2023-04-03T04:58:33;0.30;;;0.30;;
22841;SDS011;11587;47.064;15.444;2023-04-03T05:01:03;0.30;;;0.30;;
22841;SDS011;11587;47.064;15.444;2023-04-03T05:03:29;0.20;;;0.20;;
22841;SDS011;11587;47.064;15.444;2023-04-03T05:05:56;0.20;;;0.20;;
22841;SDS011;11587;47.064;15.444;2023-04-03T05:08:22;0.30;;;0.30;;
22841;SDS011;11587;47.064;15.444;2023-04-03T05:10:48;0.30;;;0.30;;
22841;SDS011;11587;47.064;15.444;2023-04-03T05:13:14;0.30;;;0.30;;
22841;SDS011;11587;47.064;15.444;2023-04-03T05:15:40;0.20;;;0.20;;
22841;SDS011;11587;47.064;15.444;2023-04-03T05:18:06;0.30;;;0.30;;
22841;SDS011;11587;47.064;15.444;2023-04-03T05:20:33;0.25;;;0.25;;
22841;SDS011;11587;47.064;15.444;2023-04-03T05:22:59;0.20;;;0.20;;
22841;SDS011;11587;47.064;15.444;2023-04-03T05:25:26;0.30;;;0.30;;
22841;SDS011;11587;47.064;15.444;2023-04-03T05:27:52;0.30;;;0.30;;
22841;SDS011;11587;47.064;15.444;2023-04-03T05:30:18;0.30;;;0.30;;
22841;SDS011;11587;47.064;15.444;2023-04-03T05:32:44;0.20;;;0.20;;
22841;SDS011;11587;47.064;15.444;2023-04-03T05:35:10;0.30;;;0.30;;
22841;SDS011;11587;47.064;15.444;2023-04-03T05:37:36;0.20;;;0.20;;
22841;SDS011;11587;47.064;15.444;2023-04-03T05:40:03;0.20;;;0.20;;
22841;SDS011;11587;47.064;15.444;2023-04-03T05:42:29;0.20;;;0.20;;
22841;SDS011;11587;47.064;15.444;2023-04-03T05:44:55;0.20;;;0.20;;
22841;SDS011;11587;47.064;15.444;2023-04-03T05:47:21;0.20;;;0.20;;
22841;SDS011;11587;47.064;15.444;2023-04-03T05:49:47;0.20;;;0.20;;
22841;SDS011;11587;47.064;15.444;2023-04-03T05:52:21;0.20;;;0.20;;
22841;SDS011;11587;47.064;15.444;2023-04-03T05:54:47;0.20;;;0.20;;
22841;SDS011;11587;47.064;15.444;2023-04-03T05:57:14;0.20;;;0.20;;
22841;SDS011;11587;47.064;15.444;2023-04-03T05:59:41;0.30;;;0.30;;
22841;SDS011;11587;47.064;15.444;2023-04-03T06:02:09;0.20;;;0.20;;
22841;SDS011;11587;47.064;15.444;2023-04-03T06:04:36;0.30;;;0.30;;
22841;SDS011;11587;47.064;15.444;2023-04-03T06:07:02;0.30;;;0.30;;
22841;SDS011;11587;47.064;15.444;2023-04-03T06:09:28;0.20;;;0.20;;
22841;SDS011;11587;47.064;15.444;2023-04-03T06:11:54;0.20;;;0.20;;
22841;SDS011;11587;47.064;15.444;2023-04-03T06:14:21;0.20;;;0.20;;
22841;SDS011;11587;47.064;15.444;2023-04-03T06:16:47;0.22;;;0.22;;
22841;SDS011;11587;47.064;15.444;2023-04-03T06:19:13;0.20;;;0.20;;
22841;SDS011;11587;47.064;15.444;2023-04-03T06:21:39;0.20;;;0.20;;
22841;SDS011;11587;47.064;15.444;2023-04-03T06:24:05;0.22;;;0.22;;
22841;SDS011;11587;47.064;15.444;2023-04-03T06:26:32;0.20;;;0.20;;
22841;SDS011;11587;47.064;15.444;2023-04-03T06:28:58;0.20;;;0.20;;
22841;SDS011;11587;47.064;15.444;2023-04-03T06:31:25;0.20;;;0.20;;
22841;SDS011;11587;47.064;15.444;2023-04-03T06:33:51;0.20;;;0.20;;
22841;SDS011;11587;47.064;15.444;2023-04-03T06:36:18;0.20;;;0.20;;
22841;SDS011;11587;47.064;15.444;2023-04-03T06:38:45;0.20;;;0.20;;
22841;SDS011;11587;47.064;15.444;2023-04-03T06:41:11;0.20;;;0.20;;
22841;SDS011;11587;47.064;15.444;2023-04-03T06:43:37;0.20;;;0.20;;
22841;SDS011;11587;47.064;15.444;2023-04-03T06:46:03;0.20;;;0.20;;
22841;SDS011;11587;47.064;15.444;2023-04-03T06:48:30;0.20;;;0.20;;
22841;SDS011;11587;47.064;15.444;2023-04-03T06:50:56;0.30;;;0.30;;
22841;SDS011;11587;47.064;15.444;2023-04-03T06:53:22;0.20;;;0.20;;
22841;SDS011;11587;47.064;15.444;2023-04-03T06:55:48;0.20;;;0.20;;
22841;SDS011;11587;47.064;15.444;2023-04-03T06:58:15;0.20;;;0.20;;
22841;SDS011;11587;47.064;15.444;2023-04-03T07:00:42;0.20;;;0.20;;
22841;SDS011;11587;47.064;15.444;2023-04-03T07:03:08;0.20;;;0.20;;
22841;SDS011;11587;47.064;15.444;2023-04-03T07:05:34;0.20;;;0.20;;
22841;SDS011;11587;47.064;15.444;2023-04-03T07:08:00;0.20;;;0.20;;
22841;SDS011;11587;47.064;15.444;2023-04-03T07:10:26;0.20;;;0.20;;
22841;SDS011;11587;47.064;15.444;2023-04-03T07:12:52;0.20;;;0.20;;
22841;SDS011;11587;47.064;15.444;2023-04-03T07:15:18;0.28;;;0.28;;
22841;SDS011;11587;47.064;15.444;2023-04-03T07:17:44;0.25;;;0.25;;
22841;SDS011;11587;47.064;15.444;2023-04-03T07:20:11;0.20;;;0.20;;
22841;SDS011;11587;47.064;15.444;2023-04-03T07:22:38;0.20;;;0.20;;
22841;SDS011;11587;47.064;15.444;2023-04-03T07:25:04;0.20;;;0.20;;
22841;SDS011;11587;47.064;15.444;2023-04-03T07:27:32;0.20;;;0.20;;
22841;SDS011;11587;47.064;15.444;2023-04-03T07:29:58;0.20;;;0.20;;
22841;SDS011;11587;47.064;15.444;2023-04-03T07:32:24;0.20;;;0.20;;
22841;SDS011;11587;47.064;15.444;2023-04-03T07:34:50;0.20;;;0.20;;
22841;SDS011;11587;47.064;15.444;2023-04-03T07:37:16;0.20;;;0.20;;
22841;SDS011;11587;47.064;15.444;2023-04-03T07:39:43;0.20;;;0.20;;
22841;SDS011;11587;47.064;15.444;2023-04-03T07:42:10;0.20;;;0.20;;
22841;SDS011;11587;47.064;15.444;2023-04-03T07:44:37;0.20;;;0.20;;
22841;SDS011;11587;47.064;15.444;2023-04-03T07:47:03;0.20;;;0.20;;
22841;SDS011;11587;47.064;15.444;2023-04-03T07:49:29;0.20;;;0.20;;
22841;SDS011;11587;47.064;15.444;2023-04-03T07:51:56;0.20;;;0.20;;
22841;SDS011;11587;47.064;15.444;2023-04-03T07:54:22;0.20;;;0.20;;
22841;SDS011;11587;47.064;15.444;2023-04-03T07:56:48;0.20;;;0.20;;
22841;SDS011;11587;47.064;15.444;2023-04-03T07:59:14;0.20;;;0.20;;
22841;SDS011;11587;47.064;15.444;2023-04-03T08:01:40;0.20;;;0.20;;
22841;SDS011;11587;47.064;15.444;2023-04-03T08:04:06;0.20;;;0.20;;
22841;SDS011;11587;47.064;15.444;2023-04-03T08:06:32;0.20;;;0.20;;
22841;SDS011;11587;47.064;15.444;2023-04-03T08:09:01;0.20;;;0.20;;
22841;SDS011;11587;47.064;15.444;2023-04-03T08:11:27;0.22;;;0.22;;
22841;SDS011;11587;47.064;15.444;2023-04-03T08:13:53;0.20;;;0.20;;
22841;SDS011;11587;47.064;15.444;2023-04-03T08:16:21;0.20;;;0.20;;
22841;SDS011;11587;47.064;15.444;2023-04-03T08:18:48;0.20;;;0.20;;
22841;SDS011;11587;47.064;15.444;2023-04-03T08:21:14;0.20;;;0.20;;
22841;SDS011;11587;47.064;15.444;2023-04-03T08:23:40;0.20;;;0.20;;
22841;SDS011;11587;47.064;15.444;2023-04-03T08:26:07;0.20;;;0.20;;
22841;SDS011;11587;47.064;15.444;2023-04-03T08:28:34;0.20;;;0.20;;
22841;SDS011;11587;47.064;15.444;2023-04-03T08:31:04;0.20;;;0.20;;
22841;SDS011;11587;47.064;15.444;2023-04-03T08:33:31;0.20;;;0.20;;
22841;SDS011;11587;47.064;15.444;2023-04-03T08:35:57;0.20;;;0.20;;
22841;SDS011;11587;47.064;15.444;2023-04-03T08:38:23;0.20;;;0.20;;
22841;SDS011;11587;47.064;15.444;2023-04-03T08:41:35;0.20;;;0.20;;
22841;SDS011;11587;47.064;15.444;2023-04-03T08:46:10;0.28;;;0.28;;
22841;SDS011;11587;47.064;15.444;2023-04-03T08:48:39;0.20;;;0.20;;
22841;SDS011;11587;47.064;15.444;2023-04-03T08:51:19;0.20;;;0.20;;
22841;SDS011;11587;47.064;15.444;2023-04-03T08:53:53;0.20;;;0.20;;
22841;SDS011;11587;47.064;15.444;2023-04-03T08:56:21;0.20;;;0.20;;
22841;SDS011;11587;47.064;15.444;2023-04-03T08:58:50;0.20;;;0.20;;
22841;SDS011;11587;47.064;15.444;2023-04-03T09:01:33;0.20;;;0.20;;
22841;SDS011;11587;47.064;15.444;2023-04-03T09:04:01;0.20;;;0.20;;
22841;SDS011;11587;47.064;15.444;2023-04-03T09:06:29;0.20;;;0.20;;
22841;SDS011;11587;47.064;15.444;2023-04-03T09:14:23;0.20;;;0.20;;
22841;SDS011;11587;47.064;15.444;2023-04-03T09:16:54;0.20;;;0.20;;
22841;SDS011;11587;47.064;15.444;2023-04-03T09:21:48;0.20;;;0.20;;
22841;SDS011;11587;47.064;15.444;2023-04-03T09:24:15;0.20;;;0.20;;
22841;SDS011;11587;47.064;15.444;2023-04-03T09:26:44;0.20;;;0.20;;
22841;SDS011;11587;47.064;15.444;2023-04-03T09:29:14;0.20;;;0.20;;
22841;SDS011;11587;47.064;15.444;2023-04-03T09:31:42;0.30;;;0.30;;
22841;SDS011;11587;47.064;15.444;2023-04-03T09:36:49;0.20;;;0.20;;
22841;SDS011;11587;47.064;15.444;2023-04-03T09:39:17;0.20;;;0.20;;
22841;SDS011;11587;47.064;15.444;2023-04-03T09:41:54;0.20;;;0.20;;
22841;SDS011;11587;47.064;15.444;2023-04-03T09:44:22;0.20;;;0.20;;
22841;SDS011;11587;47.064;15.444;2023-04-03T09:46:49;0.20;;;0.20;;
22841;SDS011;11587;47.064;15.444;2023-04-03T09:49:15;0.20;;;0.20;;
22841;SDS011;11587;47.064;15.444;2023-04-03T09:51:42;0.20;;;0.20;;
22841;SDS011;11587;47.064;15.444;2023-04-03T09:57:03;0.40;;;0.40;;
22841;SDS011;11587;47.064;15.444;2023-04-03T09:59:30;0.35;;;0.35;;
22841;SDS011;11587;47.064;15.444;2023-04-03T10:02:03;0.40;;;0.40;;
22841;SDS011;11587;47.064;15.444;2023-04-03T10:04:40;0.30;;;0.30;;
22841;SDS011;11587;47.064;15.444;2023-04-03T10:07:26;0.40;;;0.40;;
22841;SDS011;11587;47.064;15.444;2023-04-03T10:09:56;0.40;;;0.40;;
22841;SDS011;11587;47.064;15.444;2023-04-03T10:12:23;0.40;;;0.40;;
22841;SDS011;11587;47.064;15.444;2023-04-03T10:17:26;0.20;;;0.20;;
22841;SDS011;11587;47.064;15.444;2023-04-03T10:24:57;0.20;;;0.20;;
22841;SDS011;11587;47.064;15.444;2023-04-03T10:30:33;0.20;;;0.20;;
22841;SDS011;11587;47.064;15.444;2023-04-03T10:33:07;0.20;;;0.20;;
22841;SDS011;11587;47.064;15.444;2023-04-03T10:38:31;0.20;;;0.20;;
22841;SDS011;11587;47.064;15.444;2023-04-03T10:53:37;0.20;;;0.20;;
22841;SDS011;11587;47.064;15.444;2023-04-03T10:58:41;0.20;;;0.20;;
22841;SDS011;11587;47.064;15.444;2023-04-03T11:01:10;0.20;;;0.20;;
22841;SDS011;11587;47.064;15.444;2023-04-03T11:03:41;0.20;;;0.20;;
22841;SDS011;11587;47.064;15.444;2023-04-03T11:06:09;0.20;;;0.20;;
22841;SDS011;11587;47.064;15.444;2023-04-03T11:08:44;0.20;;;0.20;;
22841;SDS011;11587;47.064;15.444;2023-04-03T11:11:13;0.20;;;0.20;;
22841;SDS011;11587;47.064;15.444;2023-04-03T11:13:49;0.20;;;0.20;;
22841;SDS011;11587;47.064;15.444;2023-04-03T11:16:20;0.20;;;0.20;;
22841;SDS011;11587;47.064;15.444;2023-04-03T11:19:02;0.20;;;0.20;;
22841;SDS011;11587;47.064;15.444;2023-04-03T11:21:41;0.20;;;0.20;;
22841;SDS011;11587;47.064;15.444;2023-04-03T11:24:15;0.20;;;0.20;;
22841;SDS011;11587;47.064;15.444;2023-04-03T11:26:42;0.20;;;0.20;;
22841;SDS011;11587;47.064;15.444;2023-04-03T11:29:10;0.20;;;0.20;;
22841;SDS011;11587;47.064;15.444;2023-04-03T11:31:42;0.20;;;0.20;;
22841;SDS011;11587;47.064;15.444;2023-04-03T11:36:42;0.10;;;0.10;;
22841;SDS011;11587;47.064;15.444;2023-04-03T11:39:15;0.20;;;0.20;;
22841;SDS011;11587;47.064;15.444;2023-04-03T11:41:43;0.10;;;0.10;;
22841;SDS011;11587;47.064;15.444;2023-04-03T11:46:54;0.10;;;0.10;;
22841;SDS011;11587;47.064;15.444;2023-04-03T11:52:55;0.20;;;0.20;;
22841;SDS011;11587;47.064;15.444;2023-04-03T11:54:51;0.20;;;0.20;;
22841;SDS011;11587;47.064;15.444;2023-04-03T12:00:41;0.10;;;0.10;;
22841;SDS011;11587;47.064;15.444;2023-04-03T12:02:48;0.20;;;0.20;;
22841;SDS011;11587;47.064;15.444;2023-04-03T12:05:24;0.17;;;0.17;;
22841;SDS011;11587;47.064;15.444;2023-04-03T12:10:38;0.20;;;0.20;;
22841;SDS011;11587;47.064;15.444;2023-04-03T12:13:23;0.10;;;0.10;;
22841;SDS011;11587;47.064;15.444;2023-04-03T12:15:50;0.10;;;0.10;;
22841;SDS011;11587;47.064;15.444;2023-04-03T12:21:01;0.10;;;0.10;;
22841;SDS011;11587;47.064;15.444;2023-04-03T12:23:29;0.10;;;0.10;;
22841;SDS011;11587;47.064;15.444;2023-04-03T12:26:00;0.10;;;0.10;;
22841;SDS011;11587;47.064;15.444;2023-04-03T12:28:29;0.10;;;0.10;;
22841;SDS011;11587;47.064;15.444;2023-04-03T12:30:55;0.10;;;0.10;;
22841;SDS011;11587;47.064;15.444;2023-04-03T12:33:36;0.10;;;0.10;;
22841;SDS011;11587;47.064;15.444;2023-04-03T12:36:07;0.00;;;0.00;;
22841;SDS011;11587;47.064;15.444;2023-04-03T12:44:08;0.10;;;0.10;;
22841;SDS011;11587;47.064;15.444;2023-04-03T12:46:38;0.10;;;0.10;;
22841;SDS011;11587;47.064;15.444;2023-04-03T12:49:12;0.10;;;0.10;;
22841;SDS011;11587;47.064;15.444;2023-04-03T12:51:41;0.10;;;0.10;;
22841;SDS011;11587;47.064;15.444;2023-04-03T12:54:41;0.00;;;0.00;;
22841;SDS011;11587;47.064;15.444;2023-04-03T12:57:20;0.00;;;0.00;;
22841;SDS011;11587;47.064;15.444;2023-04-03T12:59:53;0.00;;;0.00;;
22841;SDS011;11587;47.064;15.444;2023-04-03T13:05:15;0.00;;;0.00;;
22841;SDS011;11587;47.064;15.444;2023-04-03T13:07:42;0.00;;;0.00;;
22841;SDS011;11587;47.064;15.444;2023-04-03T13:12:44;0.00;;;0.00;;
22841;SDS011;11587;47.064;15.444;2023-04-03T13:15:39;0.00;;;0.00;;
22841;SDS011;11587;47.064;15.444;2023-04-03T13:17:57;0.00;;;0.00;;
22841;SDS011;11587;47.064;15.444;2023-04-03T13:20:27;0.00;;;0.00;;
22841;SDS011;11587;47.064;15.444;2023-04-03T13:22:59;0.10;;;0.10;;
22841;SDS011;11587;47.064;15.444;2023-04-03T13:25:28;0.10;;;0.10;;
22841;SDS011;11587;47.064;15.444;2023-04-03T13:27:55;0.10;;;0.10;;
22841;SDS011;11587;47.064;15.444;2023-04-03T13:30:32;0.10;;;0.10;;
22841;SDS011;11587;47.064;15.444;2023-04-03T13:33:00;0.00;;;0.00;;
22841;SDS011;11587;47.064;15.444;2023-04-03T13:35:31;0.00;;;0.00;;
22841;SDS011;11587;47.064;15.444;2023-04-03T13:38:00;0.07;;;0.07;;
22841;SDS011;11587;47.064;15.444;2023-04-03T13:40:26;0.00;;;0.00;;
22841;SDS011;11587;47.064;15.444;2023-04-03T13:43:02;0.00;;;0.00;;
22841;SDS011;11587;47.064;15.444;2023-04-03T13:45:30;0.00;;;0.00;;
22841;SDS011;11587;47.064;15.444;2023-04-03T13:48:16;0.00;;;0.00;;
22841;SDS011;11587;47.064;15.444;2023-04-03T13:50:50;0.00;;;0.00;;
22841;SDS011;11587;47.064;15.444;2023-04-03T13:53:17;0.00;;;0.00;;
22841;SDS011;11587;47.064;15.444;2023-04-03T13:58:28;0.00;;;0.00;;
22841;SDS011;11587;47.064;15.444;2023-04-03T14:01:07;0.00;;;0.00;;
22841;SDS011;11587;47.064;15.444;2023-04-03T14:03:38;0.00;;;0.00;;
22841;SDS011;11587;47.064;15.444;2023-04-03T14:06:10;0.00;;;0.00;;
22841;SDS011;11587;47.064;15.444;2023-04-03T14:08:36;0.00;;;0.00;;
22841;SDS011;11587;47.064;15.444;2023-04-03T14:11:02;0.00;;;0.00;;
22841;SDS011;11587;47.064;15.444;2023-04-03T14:13:29;0.00;;;0.00;;
22841;SDS011;11587;47.064;15.444;2023-04-03T14:15:55;0.00;;;0.00;;
22841;SDS011;11587;47.064;15.444;2023-04-03T14:18:21;0.00;;;0.00;;
22841;SDS011;11587;47.064;15.444;2023-04-03T14:20:48;0.00;;;0.00;;
22841;SDS011;11587;47.064;15.444;2023-04-03T14:23:14;0.00;;;0.00;;
22841;SDS011;11587;47.064;15.444;2023-04-03T14:25:41;0.00;;;0.00;;
22841;SDS011;11587;47.064;15.444;2023-04-03T14:28:21;0.00;;;0.00;;
22841;SDS011;11587;47.064;15.444;2023-04-03T14:30:48;0.00;;;0.00;;
22841;SDS011;11587;47.064;15.444;2023-04-03T14:33:16;0.00;;;0.00;;
22841;SDS011;11587;47.064;15.444;2023-04-03T14:35:42;0.00;;;0.00;;
22841;SDS011;11587;47.064;15.444;2023-04-03T14:38:13;0.08;;;0.08;;
22841;SDS011;11587;47.064;15.444;2023-04-03T14:40:45;0.10;;;0.10;;
22841;SDS011;11587;47.064;15.444;2023-04-03T14:43:12;0.10;;;0.10;;
22841;SDS011;11587;47.064;15.444;2023-04-03T14:45:38;0.10;;;0.10;;
22841;SDS011;11587;47.064;15.444;2023-04-03T14:48:04;0.13;;;0.13;;
22841;SDS011;11587;47.064;15.444;2023-04-03T14:50:31;0.10;;;0.10;;
22841;SDS011;11587;47.064;15.444;2023-04-03T14:52:58;0.20;;;0.20;;
22841;SDS011;11587;47.064;15.444;2023-04-03T14:55:24;0.20;;;0.20;;
22841;SDS011;11587;47.064;15.444;2023-04-03T14:57:51;0.10;;;0.10;;
22841;SDS011;11587;47.064;15.444;2023-04-03T15:00:18;0.20;;;0.20;;
22841;SDS011;11587;47.064;15.444;2023-04-03T15:02:45;0.20;;;0.20;;
22841;SDS011;11587;47.064;15.444;2023-04-03T15:05:12;0.20;;;0.20;;
22841;SDS011;11587;47.064;15.444;2023-04-03T15:07:40;0.20;;;0.20;;
22841;SDS011;11587;47.064;15.444;2023-04-03T15:10:20;0.20;;;0.20;;
22841;SDS011;11587;47.064;15.444;2023-04-03T15:12:46;0.20;;;0.20;;
22841;SDS011;11587;47.064;15.444;2023-04-03T15:15:13;0.10;;;0.10;;
22841;SDS011;11587;47.064;15.444;2023-04-03T15:17:40;0.10;;;0.10;;
22841;SDS011;11587;47.064;15.444;2023-04-03T15:20:20;0.10;;;0.10;;
22841;SDS011;11587;47.064;15.444;2023-04-03T15:22:46;0.20;;;0.20;;
22841;SDS011;11587;47.064;15.444;2023-04-03T15:25:12;0.20;;;0.20;;
22841;SDS011;11587;47.064;15.444;2023-04-03T15:27:39;0.20;;;0.20;;
22841;SDS011;11587;47.064;15.444;2023-04-03T15:30:06;0.20;;;0.20;;
22841;SDS011;11587;47.064;15.444;2023-04-03T15:32:32;0.30;;;0.30;;
22841;SDS011;11587;47.064;15.444;2023-04-03T15:35:00;0.20;;;0.20;;
22841;SDS011;11587;47.064;15.444;2023-04-03T15:37:26;0.20;;;0.20;;
22841;SDS011;11587;47.064;15.444;2023-04-03T15:39:52;0.20;;;0.20;;
22841;SDS011;11587;47.064;15.444;2023-04-03T15:42:19;0.20;;;0.20;;
22841;SDS011;11587;47.064;15.444;2023-04-03T15:44:45;0.20;;;0.20;;
22841;SDS011;11587;47.064;15.444;2023-04-03T15:47:12;0.20;;;0.20;;
22841;SDS011;11587;47.064;15.444;2023-04-03T15:49:38;0.20;;;0.20;;
22841;SDS011;11587;47.064;15.444;2023-04-03T15:52:04;0.20;;;0.20;;
22841;SDS011;11587;47.064;15.444;2023-04-03T15:54:31;0.20;;;0.20;;
22841;SDS011;11587;47.064;15.444;2023-04-03T15:56:57;0.20;;;0.20;;